createdAt,value
2017-07-26T22:44:50.091Z,50.1
2017-07-26T22:45:51.469Z,50.7
2017-07-26T22:46:53.797Z,49.9
2017-07-26T22:47:55.192Z,50.0
2017-07-26T22:48:56.593Z,49.4
2017-07-26T22:49:58.037Z,49.4
2017-07-26T22:51:00.289Z,48.7
2017-07-26T22:52:01.662Z,48.8
2017-07-26T22:53:03.037Z,49.3
2017-07-26T22:54:04.410Z,49.5
2017-07-26T22:55:05.786Z,49.6
2017-07-26T22:56:07.160Z,49.7
2017-07-26T22:57:08.534Z,49.6
2017-07-26T22:58:09.921Z,49.3
2017-07-26T22:59:11.301Z,49.6
2017-07-26T23:00:12.713Z,49.6
2017-07-26T23:01:14.088Z,49.6
2017-07-26T23:02:15.463Z,49.6
2017-07-26T23:03:16.860Z,49.5
2017-07-26T23:04:18.236Z,49.6
2017-07-26T23:05:19.637Z,49.5
2017-07-26T23:06:21.015Z,49.4
2017-07-26T23:07:22.389Z,49.5
2017-07-26T23:08:23.762Z,49.3
2017-07-26T23:09:25.146Z,49.5
2017-07-26T23:10:26.526Z,49.7
2017-07-26T23:11:27.899Z,50.0
2017-07-26T23:12:29.277Z,49.5
2017-07-26T23:13:30.653Z,50.0
2017-07-26T23:14:32.028Z,49.8
2017-07-26T23:15:33.400Z,49.7
2017-07-26T23:16:34.780Z,49.9
2017-07-26T23:17:36.156Z,49.7
2017-07-26T23:18:37.651Z,49.9
2017-07-26T23:19:39.001Z,49.8
2017-07-26T23:20:40.373Z,49.9
2017-07-26T23:21:41.783Z,49.9
2017-07-26T23:22:43.164Z,49.7
2017-07-26T23:23:44.551Z,49.9
2017-07-26T23:24:45.924Z,49.9
2017-07-26T23:25:47.300Z,49.9
2017-07-26T23:26:48.816Z,49.9
2017-07-26T23:27:50.150Z,49.8
2017-07-26T23:28:51.544Z,49.7
2017-07-26T23:29:52.915Z,49.7
2017-07-26T23:30:54.307Z,49.7
2017-07-26T23:31:55.685Z,49.9
2017-07-26T23:32:57.059Z,49.7
2017-07-26T23:33:58.444Z,49.7
2017-07-26T23:34:59.818Z,49.8
2017-07-26T23:36:01.317Z,49.7
2017-07-26T23:37:03.622Z,49.7
2017-07-26T23:38:05.290Z,49.9
2017-07-26T23:39:06.877Z,49.7
2017-07-26T23:40:08.609Z,50.2
2017-07-26T23:41:11.885Z,50.0
2017-07-26T23:42:13.195Z,49.7
2017-07-26T23:43:14.648Z,50.1
2017-07-26T23:44:16.032Z,49.8
2017-07-26T23:45:18.261Z,49.9
2017-07-26T23:46:19.693Z,50.3
2017-07-26T23:47:21.505Z,49.8
2017-07-26T23:48:22.886Z,50.2
2017-07-26T23:49:24.265Z,50.2
2017-07-26T23:50:25.636Z,49.9
2017-07-26T23:51:27.009Z,50.2
2017-07-26T23:52:28.387Z,50.3
2017-07-26T23:53:29.761Z,50.2
2017-07-26T23:54:31.135Z,49.9
2017-07-26T23:55:32.510Z,50.1
2017-07-26T23:56:33.888Z,50.2
2017-07-26T23:57:35.261Z,49.8
2017-07-26T23:58:36.636Z,50.1
2017-07-26T23:59:38.011Z,49.7
